sensor_id;sensor_type;location;lat;lon;timestamp;temperature;humidity
10314;DHT22;5202;49.138;10.090;2024-03-25T00:00:15;4.00;99.90
10314;DHT22;5202;49.138;10.090;2024-03-25T00:02:44;4.00;99.90
10314;DHT22;5202;49.138;10.090;2024-03-25T00:05:10;4.00;99.90
10314;DHT22;5202;49.138;10.090;2024-03-25T00:07:40;4.00;99.90
10314;DHT22;5202;49.138;10.090;2024-03-25T00:10:07;3.90;99.90
10314;DHT22;5202;49.138;10.090;2024-03-25T00:12:35;3.90;99.90
10314;DHT22;5202;49.138;10.090;2024-03-25T00:15:03;3.90;99.90
10314;DHT22;5202;49.138;10.090;2024-03-25T00:17:32;3.90;99.90
10314;DHT22;5202;49.138;10.090;2024-03-25T00:19:58;3.90;99.90
10314;DHT22;5202;49.138;10.090;2024-03-25T00:22:26;3.90;99.90
10314;DHT22;5202;49.138;10.090;2024-03-25T00:24:53;3.90;99.90
10314;DHT22;5202;49.138;10.090;2024-03-25T00:27:20;3.90;99.90
10314;DHT22;5202;49.138;10.090;2024-03-25T00:29:47;3.90;99.90
10314;DHT22;5202;49.138;10.090;2024-03-25T00:32:14;3.80;99.90
10314;DHT22;5202;49.138;10.090;2024-03-25T00:34:42;3.80;99.90
10314;DHT22;5202;49.138;10.090;2024-03-25T00:37:09;3.80;99.90
10314;DHT22;5202;49.138;10.090;2024-03-25T00:39:36;3.80;99.90
10314;DHT22;5202;49.138;10.090;2024-03-25T00:42:03;3.70;99.90
10314;DHT22;5202;49.138;10.090;2024-03-25T00:44:30;3.70;99.90
10314;DHT22;5202;49.138;10.090;2024-03-25T00:46:57;3.70;99.90
10314;DHT22;5202;49.138;10.090;2024-03-25T00:49:24;3.70;99.90
10314;DHT22;5202;49.138;10.090;2024-03-25T00:51:53;3.70;99.90
10314;DHT22;5202;49.138;10.090;2024-03-25T00:54:19;3.70;99.90
10314;DHT22;5202;49.138;10.090;2024-03-25T00:56:47;3.70;99.90
10314;DHT22;5202;49.138;10.090;2024-03-25T00:59:13;3.70;99.90
10314;DHT22;5202;49.138;10.090;2024-03-25T01:01:41;3.70;99.90
10314;DHT22;5202;49.138;10.090;2024-03-25T01:04:07;3.70;99.90
10314;DHT22;5202;49.138;10.090;2024-03-25T01:06:34;3.70;99.90
10314;DHT22;5202;49.138;10.090;2024-03-25T01:09:02;3.70;99.90
10314;DHT22;5202;49.138;10.090;2024-03-25T01:11:30;3.70;99.90
10314;DHT22;5202;49.138;10.090;2024-03-25T01:13:56;3.70;99.90
10314;DHT22;5202;49.138;10.090;2024-03-25T01:16:24;3.70;99.90
10314;DHT22;5202;49.138;10.090;2024-03-25T01:18:50;3.70;99.90
10314;DHT22;5202;49.138;10.090;2024-03-25T01:21:23;3.70;99.90
10314;DHT22;5202;49.138;10.090;2024-03-25T01:23:50;3.70;99.90
10314;DHT22;5202;49.138;10.090;2024-03-25T01:26:19;3.70;99.90
10314;DHT22;5202;49.138;10.090;2024-03-25T01:28:45;3.70;99.90
10314;DHT22;5202;49.138;10.090;2024-03-25T01:31:12;3.70;99.90
10314;DHT22;5202;49.138;10.090;2024-03-25T01:33:39;3.70;99.90
10314;DHT22;5202;49.138;10.090;2024-03-25T01:36:06;3.70;99.90
10314;DHT22;5202;49.138;10.090;2024-03-25T01:38:33;3.70;99.90
10314;DHT22;5202;49.138;10.090;2024-03-25T01:41:07;3.70;99.90
10314;DHT22;5202;49.138;10.090;2024-03-25T01:43:35;3.70;99.90
10314;DHT22;5202;49.138;10.090;2024-03-25T01:46:03;3.70;99.90
10314;DHT22;5202;49.138;10.090;2024-03-25T01:48:31;3.70;99.90
10314;DHT22;5202;49.138;10.090;2024-03-25T01:51:00;3.70;99.90
10314;DHT22;5202;49.138;10.090;2024-03-25T01:53:28;3.70;99.90
10314;DHT22;5202;49.138;10.090;2024-03-25T01:55:56;3.70;99.90
10314;DHT22;5202;49.138;10.090;2024-03-25T01:58:25;3.70;99.90
10314;DHT22;5202;49.138;10.090;2024-03-25T02:00:54;3.70;99.90
10314;DHT22;5202;49.138;10.090;2024-03-25T02:03:22;3.70;99.90
10314;DHT22;5202;49.138;10.090;2024-03-25T02:05:52;3.70;99.90
10314;DHT22;5202;49.138;10.090;2024-03-25T02:08:22;3.70;99.90
10314;DHT22;5202;49.138;10.090;2024-03-25T02:10:50;3.70;99.90
10314;DHT22;5202;49.138;10.090;2024-03-25T02:13:17;3.80;99.90
10314;DHT22;5202;49.138;10.090;2024-03-25T02:15:45;3.80;99.90
10314;DHT22;5202;49.138;10.090;2024-03-25T02:18:13;3.80;99.90
10314;DHT22;5202;49.138;10.090;2024-03-25T02:20:43;3.80;99.90
10314;DHT22;5202;49.138;10.090;2024-03-25T02:23:09;3.80;99.90
10314;DHT22;5202;49.138;10.090;2024-03-25T02:25:38;3.80;99.90
10314;DHT22;5202;49.138;10.090;2024-03-25T02:28:08;3.80;99.90
10314;DHT22;5202;49.138;10.090;2024-03-25T02:30:35;3.80;99.90
10314;DHT22;5202;49.138;10.090;2024-03-25T02:33:02;3.80;99.90
10314;DHT22;5202;49.138;10.090;2024-03-25T02:35:30;3.90;99.90
10314;DHT22;5202;49.138;10.090;2024-03-25T02:37:57;3.90;99.90
10314;DHT22;5202;49.138;10.090;2024-03-25T02:40:25;3.90;99.90
10314;DHT22;5202;49.138;10.090;2024-03-25T02:42:52;3.90;99.90
10314;DHT22;5202;49.138;10.090;2024-03-25T02:45:21;3.90;99.90
10314;DHT22;5202;49.138;10.090;2024-03-25T02:47:47;3.90;99.90
10314;DHT22;5202;49.138;10.090;2024-03-25T02:50:16;3.90;99.90
10314;DHT22;5202;49.138;10.090;2024-03-25T02:52:42;3.90;99.90
10314;DHT22;5202;49.138;10.090;2024-03-25T02:55:10;3.90;99.90
10314;DHT22;5202;49.138;10.090;2024-03-25T02:57:36;3.90;99.90
10314;DHT22;5202;49.138;10.090;2024-03-25T03:00:04;3.90;99.90
10314;DHT22;5202;49.138;10.090;2024-03-25T03:02:33;3.90;99.90
10314;DHT22;5202;49.138;10.090;2024-03-25T03:05:07;3.90;99.90
10314;DHT22;5202;49.138;10.090;2024-03-25T03:07:40;3.90;99.90
10314;DHT22;5202;49.138;10.090;2024-03-25T03:10:08;3.90;99.90
10314;DHT22;5202;49.138;10.090;2024-03-25T03:12:35;3.90;99.90
10314;DHT22;5202;49.138;10.090;2024-03-25T03:15:03;3.90;99.90
10314;DHT22;5202;49.138;10.090;2024-03-25T03:17:30;3.90;99.90
10314;DHT22;5202;49.138;10.090;2024-03-25T03:19:59;3.80;99.90
10314;DHT22;5202;49.138;10.090;2024-03-25T03:22:25;3.80;99.90
10314;DHT22;5202;49.138;10.090;2024-03-25T03:24:53;3.80;99.90
10314;DHT22;5202;49.138;10.090;2024-03-25T03:27:19;3.70;99.90
10314;DHT22;5202;49.138;10.090;2024-03-25T03:29:47;3.70;99.90
10314;DHT22;5202;49.138;10.090;2024-03-25T03:32:13;3.70;99.90
10314;DHT22;5202;49.138;10.090;2024-03-25T03:34:40;3.70;99.90
10314;DHT22;5202;49.138;10.090;2024-03-25T03:37:08;3.60;99.90
10314;DHT22;5202;49.138;10.090;2024-03-25T03:39:35;3.60;99.90
10314;DHT22;5202;49.138;10.090;2024-03-25T03:42:02;3.60;99.90
10314;DHT22;5202;49.138;10.090;2024-03-25T03:44:30;3.60;99.90
10314;DHT22;5202;49.138;10.090;2024-03-25T03:46:57;3.70;99.90
10314;DHT22;5202;49.138;10.090;2024-03-25T03:49:24;3.70;99.90
10314;DHT22;5202;49.138;10.090;2024-03-25T03:51:51;3.70;99.90
10314;DHT22;5202;49.138;10.090;2024-03-25T03:54:19;3.70;99.90
10314;DHT22;5202;49.138;10.090;2024-03-25T03:56:46;3.70;99.90
10314;DHT22;5202;49.138;10.090;2024-03-25T03:59:13;3.70;99.90
10314;DHT22;5202;49.138;10.090;2024-03-25T04:01:39;3.70;99.90
10314;DHT22;5202;49.138;10.090;2024-03-25T04:04:07;3.70;99.90
10314;DHT22;5202;49.138;10.090;2024-03-25T04:06:33;3.80;99.90
10314;DHT22;5202;49.138;10.090;2024-03-25T04:09:01;3.80;99.90
10314;DHT22;5202;49.138;10.090;2024-03-25T04:11:28;3.80;99.90
10314;DHT22;5202;49.138;10.090;2024-03-25T04:13:56;3.80;99.90
10314;DHT22;5202;49.138;10.090;2024-03-25T04:16:22;3.70;99.90
10314;DHT22;5202;49.138;10.090;2024-03-25T04:18:49;3.70;99.90
10314;DHT22;5202;49.138;10.090;2024-03-25T04:21:16;3.70;99.90
10314;DHT22;5202;49.138;10.090;2024-03-25T04:23:43;3.70;99.90
10314;DHT22;5202;49.138;10.090;2024-03-25T04:26:10;3.70;99.90
10314;DHT22;5202;49.138;10.090;2024-03-25T04:28:39;3.70;99.90
10314;DHT22;5202;49.138;10.090;2024-03-25T04:31:07;3.70;99.90
10314;DHT22;5202;49.138;10.090;2024-03-25T04:33:35;3.60;99.90
10314;DHT22;5202;49.138;10.090;2024-03-25T04:36:01;3.60;99.90
10314;DHT22;5202;49.138;10.090;2024-03-25T04:38:30;3.60;99.90
10314;DHT22;5202;49.138;10.090;2024-03-25T04:40:56;3.60;99.90
10314;DHT22;5202;49.138;10.090;2024-03-25T04:43:23;3.60;99.90
10314;DHT22;5202;49.138;10.090;2024-03-25T04:45:51;3.50;99.90
10314;DHT22;5202;49.138;10.090;2024-03-25T04:48:17;3.50;99.90
10314;DHT22;5202;49.138;10.090;2024-03-25T04:50:44;3.50;99.90
10314;DHT22;5202;49.138;10.090;2024-03-25T04:53:10;3.50;99.90
10314;DHT22;5202;49.138;10.090;2024-03-25T04:55:36;3.50;99.90
10314;DHT22;5202;49.138;10.090;2024-03-25T04:58:03;3.50;99.90
10314;DHT22;5202;49.138;10.090;2024-03-25T05:00:30;3.50;99.90
10314;DHT22;5202;49.138;10.090;2024-03-25T05:02:57;3.50;99.90
10314;DHT22;5202;49.138;10.090;2024-03-25T05:05:24;3.40;99.90
10314;DHT22;5202;49.138;10.090;2024-03-25T05:07:57;3.40;99.90
10314;DHT22;5202;49.138;10.090;2024-03-25T05:10:23;3.40;99.90
10314;DHT22;5202;49.138;10.090;2024-03-25T05:12:50;3.40;99.90
10314;DHT22;5202;49.138;10.090;2024-03-25T05:15:16;3.40;99.90
10314;DHT22;5202;49.138;10.090;2024-03-25T05:17:43;3.40;99.90
10314;DHT22;5202;49.138;10.090;2024-03-25T05:20:11;3.40;99.90
10314;DHT22;5202;49.138;10.090;2024-03-25T05:22:37;3.40;99.90
10314;DHT22;5202;49.138;10.090;2024-03-25T05:25:04;3.30;99.90
10314;DHT22;5202;49.138;10.090;2024-03-25T05:27:31;3.30;99.90
10314;DHT22;5202;49.138;10.090;2024-03-25T05:29:58;3.30;99.90
10314;DHT22;5202;49.138;10.090;2024-03-25T05:32:25;3.20;99.90
10314;DHT22;5202;49.138;10.090;2024-03-25T05:34:51;3.20;99.90
10314;DHT22;5202;49.138;10.090;2024-03-25T05:37:19;3.20;99.90
10314;DHT22;5202;49.138;10.090;2024-03-25T05:39:46;3.10;99.90
10314;DHT22;5202;49.138;10.090;2024-03-25T05:42:12;3.10;99.90
10314;DHT22;5202;49.138;10.090;2024-03-25T05:44:39;3.10;99.90
10314;DHT22;5202;49.138;10.090;2024-03-25T05:47:05;3.10;99.90
10314;DHT22;5202;49.138;10.090;2024-03-25T05:49:32;3.10;99.90
10314;DHT22;5202;49.138;10.090;2024-03-25T05:51:58;3.10;99.90
10314;DHT22;5202;49.138;10.090;2024-03-25T05:54:26;3.10;99.90
10314;DHT22;5202;49.138;10.090;2024-03-25T05:56:53;3.20;99.90
10314;DHT22;5202;49.138;10.090;2024-03-25T05:59:20;3.20;99.90
10314;DHT22;5202;49.138;10.090;2024-03-25T06:01:47;3.30;99.90
10314;DHT22;5202;49.138;10.090;2024-03-25T06:04:16;3.40;99.90
10314;DHT22;5202;49.138;10.090;2024-03-25T06:06:42;3.30;99.90
10314;DHT22;5202;49.138;10.090;2024-03-25T06:09:09;3.30;99.90
10314;DHT22;5202;49.138;10.090;2024-03-25T06:11:36;3.30;99.90
10314;DHT22;5202;49.138;10.090;2024-03-25T06:14:03;3.30;99.90
10314;DHT22;5202;49.138;10.090;2024-03-25T06:16:29;3.40;99.90
10314;DHT22;5202;49.138;10.090;2024-03-25T06:18:56;3.40;99.90
10314;DHT22;5202;49.138;10.090;2024-03-25T06:21:22;3.50;99.90
10314;DHT22;5202;49.138;10.090;2024-03-25T06:23:49;3.50;99.90
10314;DHT22;5202;49.138;10.090;2024-03-25T06:26:16;3.60;99.90
10314;DHT22;5202;49.138;10.090;2024-03-25T06:28:43;3.50;99.90
10314;DHT22;5202;49.138;10.090;2024-03-25T06:31:10;3.50;99.90
10314;DHT22;5202;49.138;10.090;2024-03-25T06:33:55;3.50;99.90
10314;DHT22;5202;49.138;10.090;2024-03-25T06:36:40;3.50;99.90
10314;DHT22;5202;49.138;10.090;2024-03-25T06:39:06;3.50;99.90
10314;DHT22;5202;49.138;10.090;2024-03-25T06:41:33;3.60;99.90
10314;DHT22;5202;49.138;10.090;2024-03-25T06:44:01;3.50;99.90
10314;DHT22;5202;49.138;10.090;2024-03-25T06:46:27;3.60;99.90
10314;DHT22;5202;49.138;10.090;2024-03-25T06:48:54;3.50;99.90
10314;DHT22;5202;49.138;10.090;2024-03-25T06:51:20;3.60;99.90
10314;DHT22;5202;49.138;10.090;2024-03-25T06:53:47;3.60;99.90
10314;DHT22;5202;49.138;10.090;2024-03-25T06:56:13;3.70;99.90
10314;DHT22;5202;49.138;10.090;2024-03-25T06:58:40;3.90;99.90
10314;DHT22;5202;49.138;10.090;2024-03-25T07:01:08;3.90;99.90
10314;DHT22;5202;49.138;10.090;2024-03-25T07:03:36;4.00;99.90
10314;DHT22;5202;49.138;10.090;2024-03-25T07:06:12;4.00;99.90
10314;DHT22;5202;49.138;10.090;2024-03-25T07:08:49;4.10;99.90
10314;DHT22;5202;49.138;10.090;2024-03-25T07:11:15;4.30;99.90
10314;DHT22;5202;49.138;10.090;2024-03-25T07:13:43;4.40;99.90
10314;DHT22;5202;49.138;10.090;2024-03-25T07:16:11;4.40;99.90
10314;DHT22;5202;49.138;10.090;2024-03-25T07:18:38;4.40;99.90
10314;DHT22;5202;49.138;10.090;2024-03-25T07:21:04;4.50;99.90
10314;DHT22;5202;49.138;10.090;2024-03-25T07:23:31;4.60;99.90
10314;DHT22;5202;49.138;10.090;2024-03-25T07:25:57;4.70;99.90
10314;DHT22;5202;49.138;10.090;2024-03-25T07:28:24;4.70;99.90
10314;DHT22;5202;49.138;10.090;2024-03-25T07:30:50;4.90;99.90
10314;DHT22;5202;49.138;10.090;2024-03-25T07:33:18;5.00;99.90
10314;DHT22;5202;49.138;10.090;2024-03-25T07:35:45;5.10;99.90
10314;DHT22;5202;49.138;10.090;2024-03-25T07:38:11;5.10;99.90
10314;DHT22;5202;49.138;10.090;2024-03-25T07:40:38;5.20;99.90
10314;DHT22;5202;49.138;10.090;2024-03-25T07:43:04;5.30;99.90
10314;DHT22;5202;49.138;10.090;2024-03-25T07:45:31;5.40;99.90
10314;DHT22;5202;49.138;10.090;2024-03-25T07:47:59;5.20;99.90
10314;DHT22;5202;49.138;10.090;2024-03-25T07:50:31;5.00;99.90
10314;DHT22;5202;49.138;10.090;2024-03-25T07:52:57;5.00;99.90
10314;DHT22;5202;49.138;10.090;2024-03-25T07:55:24;4.80;99.90
10314;DHT22;5202;49.138;10.090;2024-03-25T07:57:50;4.80;99.90
10314;DHT22;5202;49.138;10.090;2024-03-25T08:00:17;4.80;99.90
10314;DHT22;5202;49.138;10.090;2024-03-25T08:02:44;5.00;99.90
10314;DHT22;5202;49.138;10.090;2024-03-25T08:05:11;5.20;99.90
10314;DHT22;5202;49.138;10.090;2024-03-25T08:07:38;5.40;99.90
10314;DHT22;5202;49.138;10.090;2024-03-25T08:10:06;5.40;99.90
10314;DHT22;5202;49.138;10.090;2024-03-25T08:12:33;5.50;99.90
10314;DHT22;5202;49.138;10.090;2024-03-25T08:14:59;5.40;99.90
10314;DHT22;5202;49.138;10.090;2024-03-25T08:17:26;5.30;99.90
10314;DHT22;5202;49.138;10.090;2024-03-25T08:19:52;5.20;99.90
10314;DHT22;5202;49.138;10.090;2024-03-25T08:22:19;5.00;99.90
10314;DHT22;5202;49.138;10.090;2024-03-25T08:24:46;4.90;99.90
10314;DHT22;5202;49.138;10.090;2024-03-25T08:27:13;4.90;99.90
10314;DHT22;5202;49.138;10.090;2024-03-25T08:29:39;5.00;99.90
10314;DHT22;5202;49.138;10.090;2024-03-25T08:32:06;5.10;99.90
10314;DHT22;5202;49.138;10.090;2024-03-25T08:34:33;5.30;99.90
10314;DHT22;5202;49.138;10.090;2024-03-25T08:36:59;5.50;99.90
10314;DHT22;5202;49.138;10.090;2024-03-25T08:39:26;5.50;99.90
10314;DHT22;5202;49.138;10.090;2024-03-25T08:41:54;5.50;99.80
10314;DHT22;5202;49.138;10.090;2024-03-25T08:44:20;5.50;99.50
10314;DHT22;5202;49.138;10.090;2024-03-25T08:46:48;5.60;98.40
10314;DHT22;5202;49.138;10.090;2024-03-25T08:49:15;5.60;97.80
10314;DHT22;5202;49.138;10.090;2024-03-25T08:51:41;5.70;97.90
10314;DHT22;5202;49.138;10.090;2024-03-25T08:54:08;5.90;97.90
10314;DHT22;5202;49.138;10.090;2024-03-25T08:56:34;5.90;97.30
10314;DHT22;5202;49.138;10.090;2024-03-25T08:59:02;6.10;98.30
10314;DHT22;5202;49.138;10.090;2024-03-25T09:01:29;6.40;99.20
10314;DHT22;5202;49.138;10.090;2024-03-25T09:04:01;6.60;99.90
10314;DHT22;5202;49.138;10.090;2024-03-25T09:06:35;6.80;97.90
10314;DHT22;5202;49.138;10.090;2024-03-25T09:09:06;6.80;97.20
10314;DHT22;5202;49.138;10.090;2024-03-25T09:11:52;6.90;96.80
10314;DHT22;5202;49.138;10.090;2024-03-25T09:14:19;7.00;96.00
10314;DHT22;5202;49.138;10.090;2024-03-25T09:16:46;6.90;95.90
10314;DHT22;5202;49.138;10.090;2024-03-25T09:19:12;6.90;96.60
10314;DHT22;5202;49.138;10.090;2024-03-25T09:21:39;7.00;95.90
10314;DHT22;5202;49.138;10.090;2024-03-25T09:24:06;6.90;95.60
10314;DHT22;5202;49.138;10.090;2024-03-25T09:26:32;6.90;95.60
10314;DHT22;5202;49.138;10.090;2024-03-25T09:28:59;7.00;96.70
10314;DHT22;5202;49.138;10.090;2024-03-25T09:31:27;7.00;95.30
10314;DHT22;5202;49.138;10.090;2024-03-25T09:34:00;6.80;93.70
10314;DHT22;5202;49.138;10.090;2024-03-25T09:36:26;6.60;92.90
10314;DHT22;5202;49.138;10.090;2024-03-25T09:38:54;6.70;92.90
10314;DHT22;5202;49.138;10.090;2024-03-25T09:41:21;6.80;91.80
10314;DHT22;5202;49.138;10.090;2024-03-25T09:43:51;7.00;90.90
10314;DHT22;5202;49.138;10.090;2024-03-25T09:46:20;7.00;90.60
10314;DHT22;5202;49.138;10.090;2024-03-25T09:48:48;7.10;88.30
10314;DHT22;5202;49.138;10.090;2024-03-25T09:51:15;7.10;89.00
10314;DHT22;5202;49.138;10.090;2024-03-25T09:53:42;7.10;87.20
10314;DHT22;5202;49.138;10.090;2024-03-25T09:56:10;7.00;89.10
10314;DHT22;5202;49.138;10.090;2024-03-25T09:58:36;7.10;91.10
10314;DHT22;5202;49.138;10.090;2024-03-25T10:01:03;7.30;92.70
10314;DHT22;5202;49.138;10.090;2024-03-25T10:03:30;7.50;90.00
10314;DHT22;5202;49.138;10.090;2024-03-25T10:05:58;7.60;90.60
10314;DHT22;5202;49.138;10.090;2024-03-25T10:08:24;7.80;87.20
10314;DHT22;5202;49.138;10.090;2024-03-25T10:10:53;7.80;84.50
10314;DHT22;5202;49.138;10.090;2024-03-25T10:13:20;7.80;86.20
10314;DHT22;5202;49.138;10.090;2024-03-25T10:15:48;7.80;87.30
10314;DHT22;5202;49.138;10.090;2024-03-25T10:18:16;7.80;87.30
10314;DHT22;5202;49.138;10.090;2024-03-25T10:20:48;7.90;87.70
10314;DHT22;5202;49.138;10.090;2024-03-25T10:23:17;8.10;84.30
10314;DHT22;5202;49.138;10.090;2024-03-25T10:25:48;8.20;87.10
10314;DHT22;5202;49.138;10.090;2024-03-25T10:28:14;8.50;87.00
10314;DHT22;5202;49.138;10.090;2024-03-25T10:30:41;8.50;85.90
10314;DHT22;5202;49.138;10.090;2024-03-25T10:33:08;8.60;83.80
10314;DHT22;5202;49.138;10.090;2024-03-25T10:35:36;8.70;83.10
10314;DHT22;5202;49.138;10.090;2024-03-25T10:38:04;8.70;84.50
10314;DHT22;5202;49.138;10.090;2024-03-25T10:40:33;8.90;88.90
10314;DHT22;5202;49.138;10.090;2024-03-25T10:43:02;9.10;84.80
10314;DHT22;5202;49.138;10.090;2024-03-25T10:45:30;9.30;86.10
10314;DHT22;5202;49.138;10.090;2024-03-25T10:48:03;9.20;80.70
10314;DHT22;5202;49.138;10.090;2024-03-25T10:50:35;9.10;80.30
10314;DHT22;5202;49.138;10.090;2024-03-25T10:53:04;9.00;80.10
10314;DHT22;5202;49.138;10.090;2024-03-25T10:55:35;8.90;79.20
10314;DHT22;5202;49.138;10.090;2024-03-25T10:58:04;9.20;82.50
10314;DHT22;5202;49.138;10.090;2024-03-25T11:00:30;9.30;79.70
10314;DHT22;5202;49.138;10.090;2024-03-25T11:02:58;9.10;75.80
10314;DHT22;5202;49.138;10.090;2024-03-25T11:05:26;8.90;75.40
10314;DHT22;5202;49.138;10.090;2024-03-25T11:08:10;8.90;76.30
10314;DHT22;5202;49.138;10.090;2024-03-25T11:10:41;9.00;77.10
10314;DHT22;5202;49.138;10.090;2024-03-25T11:13:13;9.20;77.00
10314;DHT22;5202;49.138;10.090;2024-03-25T11:15:40;9.20;76.20
10314;DHT22;5202;49.138;10.090;2024-03-25T11:18:11;9.50;77.40
10314;DHT22;5202;49.138;10.090;2024-03-25T11:20:42;9.50;74.90
10314;DHT22;5202;49.138;10.090;2024-03-25T11:23:09;9.60;74.80
10314;DHT22;5202;49.138;10.090;2024-03-25T11:25:38;9.70;79.00
10314;DHT22;5202;49.138;10.090;2024-03-25T11:28:07;10.00;80.70
10314;DHT22;5202;49.138;10.090;2024-03-25T11:30:37;10.30;80.70
10314;DHT22;5202;49.138;10.090;2024-03-25T11:33:04;10.70;83.20
10314;DHT22;5202;49.138;10.090;2024-03-25T11:35:37;10.90;78.30
10314;DHT22;5202;49.138;10.090;2024-03-25T11:38:04;10.90;73.40
10314;DHT22;5202;49.138;10.090;2024-03-25T11:40:31;10.70;72.20
10314;DHT22;5202;49.138;10.090;2024-03-25T11:42:59;10.70;77.00
10314;DHT22;5202;49.138;10.090;2024-03-25T11:45:26;10.90;79.00
10314;DHT22;5202;49.138;10.090;2024-03-25T11:47:53;11.10;73.60
10314;DHT22;5202;49.138;10.090;2024-03-25T11:50:19;11.50;78.20
10314;DHT22;5202;49.138;10.090;2024-03-25T11:52:46;11.70;73.20
10314;DHT22;5202;49.138;10.090;2024-03-25T11:55:17;11.70;74.40
10314;DHT22;5202;49.138;10.090;2024-03-25T11:57:44;11.40;68.70
10314;DHT22;5202;49.138;10.090;2024-03-25T12:00:12;11.30;70.60
10314;DHT22;5202;49.138;10.090;2024-03-25T12:02:42;11.50;70.50
10314;DHT22;5202;49.138;10.090;2024-03-25T12:05:11;11.40;71.80
10314;DHT22;5202;49.138;10.090;2024-03-25T12:07:38;11.50;69.90
10314;DHT22;5202;49.138;10.090;2024-03-25T12:10:05;11.40;69.20
10314;DHT22;5202;49.138;10.090;2024-03-25T12:12:50;11.80;73.00
10314;DHT22;5202;49.138;10.090;2024-03-25T12:15:21;11.90;67.80
10314;DHT22;5202;49.138;10.090;2024-03-25T12:17:48;11.80;68.20
10314;DHT22;5202;49.138;10.090;2024-03-25T12:20:16;11.80;66.50
10314;DHT22;5202;49.138;10.090;2024-03-25T12:22:43;11.60;66.80
10314;DHT22;5202;49.138;10.090;2024-03-25T12:25:10;11.30;66.10
10314;DHT22;5202;49.138;10.090;2024-03-25T12:27:38;11.10;67.40
10314;DHT22;5202;49.138;10.090;2024-03-25T12:30:06;11.00;68.80
10314;DHT22;5202;49.138;10.090;2024-03-25T12:32:39;11.20;69.20
10314;DHT22;5202;49.138;10.090;2024-03-25T12:35:07;11.40;67.60
10314;DHT22;5202;49.138;10.090;2024-03-25T12:37:36;11.60;66.80
10314;DHT22;5202;49.138;10.090;2024-03-25T12:40:04;11.80;69.30
10314;DHT22;5202;49.138;10.090;2024-03-25T12:42:32;12.40;70.50
10314;DHT22;5202;49.138;10.090;2024-03-25T12:44:59;12.70;65.80
10314;DHT22;5202;49.138;10.090;2024-03-25T12:47:27;12.50;65.00
10314;DHT22;5202;49.138;10.090;2024-03-25T12:49:54;12.30;63.80
10314;DHT22;5202;49.138;10.090;2024-03-25T12:52:21;11.80;64.70
10314;DHT22;5202;49.138;10.090;2024-03-25T12:54:49;11.90;68.10
10314;DHT22;5202;49.138;10.090;2024-03-25T12:57:15;12.00;64.90
10314;DHT22;5202;49.138;10.090;2024-03-25T12:59:42;12.30;66.40
10314;DHT22;5202;49.138;10.090;2024-03-25T13:02:11;13.00;71.50
10314;DHT22;5202;49.138;10.090;2024-03-25T13:04:48;13.60;74.20
10314;DHT22;5202;49.138;10.090;2024-03-25T13:07:26;14.10;68.80
10314;DHT22;5202;49.138;10.090;2024-03-25T13:09:59;14.50;69.20
10314;DHT22;5202;49.138;10.090;2024-03-25T13:12:26;14.80;60.00
10314;DHT22;5202;49.138;10.090;2024-03-25T13:14:52;14.10;57.90
10314;DHT22;5202;49.138;10.090;2024-03-25T13:17:19;13.60;56.50
10314;DHT22;5202;49.138;10.090;2024-03-25T13:19:45;13.60;61.10
10314;DHT22;5202;49.138;10.090;2024-03-25T13:22:12;13.80;59.60
10314;DHT22;5202;49.138;10.090;2024-03-25T13:24:43;14.20;59.50
10314;DHT22;5202;49.138;10.090;2024-03-25T13:27:09;14.40;56.30
10314;DHT22;5202;49.138;10.090;2024-03-25T13:29:35;14.60;58.40
10314;DHT22;5202;49.138;10.090;2024-03-25T13:32:02;14.90;58.60
10314;DHT22;5202;49.138;10.090;2024-03-25T13:34:29;15.00;61.50
10314;DHT22;5202;49.138;10.090;2024-03-25T13:36:55;15.30;61.50
10314;DHT22;5202;49.138;10.090;2024-03-25T13:39:22;15.40;59.30
10314;DHT22;5202;49.138;10.090;2024-03-25T13:41:50;15.30;56.50
10314;DHT22;5202;49.138;10.090;2024-03-25T13:44:17;15.10;59.10
10314;DHT22;5202;49.138;10.090;2024-03-25T13:46:43;15.30;61.10
10314;DHT22;5202;49.138;10.090;2024-03-25T13:49:09;15.60;59.90
10314;DHT22;5202;49.138;10.090;2024-03-25T13:51:36;15.60;62.00
10314;DHT22;5202;49.138;10.090;2024-03-25T13:54:02;15.90;62.00
10314;DHT22;5202;49.138;10.090;2024-03-25T13:56:35;16.10;59.60
10314;DHT22;5202;49.138;10.090;2024-03-25T13:59:03;16.10;59.40
10314;DHT22;5202;49.138;10.090;2024-03-25T14:01:30;15.90;55.40
10314;DHT22;5202;49.138;10.090;2024-03-25T14:03:56;15.70;58.20
10314;DHT22;5202;49.138;10.090;2024-03-25T14:06:22;15.90;58.70
10314;DHT22;5202;49.138;10.090;2024-03-25T14:08:49;16.00;55.90
10314;DHT22;5202;49.138;10.090;2024-03-25T14:11:15;16.20;57.80
10314;DHT22;5202;49.138;10.090;2024-03-25T14:13:42;16.40;58.10
10314;DHT22;5202;49.138;10.090;2024-03-25T14:16:10;16.70;58.20
10314;DHT22;5202;49.138;10.090;2024-03-25T14:18:37;16.90;57.00
10314;DHT22;5202;49.138;10.090;2024-03-25T14:21:04;17.10;55.00
10314;DHT22;5202;49.138;10.090;2024-03-25T14:23:30;16.70;54.30
10314;DHT22;5202;49.138;10.090;2024-03-25T14:25:56;16.50;55.30
10314;DHT22;5202;49.138;10.090;2024-03-25T14:28:24;16.80;53.50
10314;DHT22;5202;49.138;10.090;2024-03-25T14:30:51;17.10;54.40
10314;DHT22;5202;49.138;10.090;2024-03-25T14:33:19;17.20;51.10
10314;DHT22;5202;49.138;10.090;2024-03-25T14:35:45;17.00;50.20
10314;DHT22;5202;49.138;10.090;2024-03-25T14:38:12;16.50;48.20
10314;DHT22;5202;49.138;10.090;2024-03-25T14:40:39;16.30;49.20
10314;DHT22;5202;49.138;10.090;2024-03-25T14:43:06;16.60;49.10
10314;DHT22;5202;49.138;10.090;2024-03-25T14:45:33;16.80;51.20
10314;DHT22;5202;49.138;10.090;2024-03-25T14:47:59;16.60;51.00
10314;DHT22;5202;49.138;10.090;2024-03-25T14:50:27;16.60;50.40
10314;DHT22;5202;49.138;10.090;2024-03-25T14:52:54;16.70;52.10
10314;DHT22;5202;49.138;10.090;2024-03-25T14:55:20;17.20;54.20
10314;DHT22;5202;49.138;10.090;2024-03-25T14:57:47;17.40;51.60
10314;DHT22;5202;49.138;10.090;2024-03-25T15:00:14;17.90;51.60
10314;DHT22;5202;49.138;10.090;2024-03-25T15:02:41;18.00;50.30
10314;DHT22;5202;49.138;10.090;2024-03-25T15:05:07;18.10;50.60
10314;DHT22;5202;49.138;10.090;2024-03-25T15:07:45;18.20;49.20
10314;DHT22;5202;49.138;10.090;2024-03-25T15:10:16;18.40;52.00
10314;DHT22;5202;49.138;10.090;2024-03-25T15:12:43;18.70;52.60
10314;DHT22;5202;49.138;10.090;2024-03-25T15:15:11;18.70;52.10
10314;DHT22;5202;49.138;10.090;2024-03-25T15:17:38;18.80;50.70
10314;DHT22;5202;49.138;10.090;2024-03-25T15:20:06;18.80;49.60
10314;DHT22;5202;49.138;10.090;2024-03-25T15:22:34;19.00;51.00
10314;DHT22;5202;49.138;10.090;2024-03-25T15:25:02;19.20;52.60
10314;DHT22;5202;49.138;10.090;2024-03-25T15:27:29;19.20;50.30
10314;DHT22;5202;49.138;10.090;2024-03-25T15:29:55;19.30;49.10
10314;DHT22;5202;49.138;10.090;2024-03-25T15:32:22;19.50;48.10
10314;DHT22;5202;49.138;10.090;2024-03-25T15:34:49;19.50;47.60
10314;DHT22;5202;49.138;10.090;2024-03-25T15:37:15;19.70;48.20
10314;DHT22;5202;49.138;10.090;2024-03-25T15:39:42;19.70;49.50
10314;DHT22;5202;49.138;10.090;2024-03-25T15:42:10;19.50;49.40
10314;DHT22;5202;49.138;10.090;2024-03-25T15:44:37;19.20;50.80